createdAt,value
2019-03-04T00:01:47.036Z,72.56
2019-03-04T00:04:19.218Z,72.78
2019-03-04T00:06:51.390Z,72.66
2019-03-04T00:09:23.452Z,73.04
2019-03-04T00:11:55.511Z,72.99
2019-03-04T00:14:27.480Z,72.86
2019-03-04T00:16:59.500Z,72.69
2019-03-04T00:19:31.394Z,72.80
2019-03-04T00:22:03.378Z,72.54
2019-03-04T00:24:35.538Z,72.43
2019-03-04T00:27:07.574Z,72.61
2019-03-04T00:29:39.554Z,72.88
2019-03-04T00:32:11.639Z,72.96
2019-03-04T00:34:43.683Z,72.82
2019-03-04T00:37:15.748Z,72.76
2019-03-04T00:39:47.670Z,72.90
2019-03-04T00:42:19.681Z,73.05
2019-03-04T00:44:51.693Z,73.26
2019-03-04T00:47:23.613Z,73.23
2019-03-04T00:49:57.066Z,73.52
2019-03-04T00:52:29.017Z,73.44
2019-03-04T00:55:01.046Z,73.16
2019-03-04T00:57:34.125Z,73.30
2019-03-04T01:00:08.655Z,73.48
2019-03-04T01:02:40.673Z,73.75
2019-03-04T01:05:12.825Z,73.87
2019-03-04T01:07:45.049Z,73.80
2019-03-04T01:10:17.930Z,73.59
2019-03-04T01:12:50.103Z,73.85
2019-03-04T01:15:22.875Z,73.83
2019-03-04T01:17:54.849Z,73.88
2019-03-04T01:20:26.803Z,73.55
2019-03-04T01:22:58.825Z,73.65
2019-03-04T01:25:30.801Z,74.05
2019-03-04T01:28:02.842Z,74.34
2019-03-04T01:30:34.938Z,74.83
2019-03-04T01:33:07.065Z,74.75
2019-03-04T01:35:38.998Z,74.37
2019-03-04T01:38:10.978Z,74.87
2019-03-04T01:40:42.955Z,75.29
2019-03-04T01:43:14.942Z,75.61
2019-03-04T01:45:47.106Z,75.40
2019-03-04T01:48:19.405Z,75.70
2019-03-04T01:50:51.422Z,76.07
2019-03-04T01:53:23.426Z,75.94
2019-03-04T01:55:55.372Z,76.26
2019-03-04T01:58:27.484Z,76.65
2019-03-04T02:00:59.433Z,76.64
2019-03-04T02:03:31.604Z,76.85
2019-03-04T02:06:03.572Z,77.25
2019-03-04T02:08:35.636Z,76.58
2019-03-04T02:11:07.679Z,76.58
2019-03-04T02:13:39.770Z,76.72
2019-03-04T02:16:12.027Z,77.01
2019-03-04T02:18:44.189Z,77.26
2019-03-04T02:21:16.258Z,76.86
2019-03-04T02:23:48.320Z,76.93
2019-03-04T02:26:28.545Z,76.69
2019-03-04T02:29:00.544Z,76.61
2019-03-04T02:31:32.663Z,76.89
2019-03-04T02:34:05.279Z,76.68
2019-03-04T02:36:37.402Z,75.91
2019-03-04T02:39:10.199Z,75.32
2019-03-04T02:41:42.630Z,74.89
2019-03-04T02:44:14.828Z,74.92
2019-03-04T02:46:46.947Z,74.91
2019-03-04T02:49:19.482Z,74.62
2019-03-04T02:51:51.909Z,75.21
2019-03-04T02:54:23.968Z,75.39
2019-03-04T02:56:56.243Z,75.80
2019-03-04T02:59:28.349Z,75.04
2019-03-04T03:02:00.672Z,74.17
2019-03-04T03:04:32.838Z,73.82
2019-03-04T03:07:05.174Z,73.53
2019-03-04T03:09:37.270Z,73.41
2019-03-04T03:12:09.347Z,73.30
2019-03-04T03:14:41.461Z,73.52
2019-03-04T03:17:13.530Z,74.42
2019-03-04T03:19:45.710Z,74.88
2019-03-04T03:22:17.738Z,75.24
2019-03-04T03:24:49.833Z,75.40
2019-03-04T03:27:21.898Z,75.71
2019-03-04T03:29:53.834Z,76.00
2019-03-04T03:32:26.670Z,76.46
2019-03-04T03:34:58.708Z,76.20
2019-03-04T03:37:30.795Z,76.46
2019-03-04T03:40:02.713Z,76.70
2019-03-04T03:42:35.111Z,76.86
2019-03-04T03:45:09.291Z,76.93
2019-03-04T03:47:41.365Z,77.30
2019-03-04T03:50:13.917Z,76.75
2019-03-04T03:52:46.141Z,76.70
2019-03-04T03:55:18.743Z,77.18
2019-03-04T03:57:50.978Z,77.64
2019-03-04T04:00:23.250Z,78.10
2019-03-04T04:02:55.276Z,78.04
2019-03-04T04:05:27.171Z,78.23
2019-03-04T04:07:59.106Z,78.26
2019-03-04T04:10:31.206Z,78.22
2019-03-04T04:13:03.182Z,78.87
2019-03-04T04:15:35.316Z,79.28
2019-03-04T04:18:07.496Z,79.42
2019-03-04T04:20:39.461Z,79.35
2019-03-04T04:23:11.532Z,79.34
2019-03-04T04:25:55.445Z,79.08
2019-03-04T04:28:28.048Z,79.02
2019-03-04T04:31:00.055Z,78.87
2019-03-04T04:33:32.260Z,78.34
2019-03-04T04:36:04.341Z,78.14
2019-03-04T04:38:36.426Z,77.82
2019-03-04T04:41:08.534Z,77.54
2019-03-04T04:43:40.678Z,77.29
2019-03-04T04:46:12.848Z,76.78
2019-03-04T04:48:44.862Z,76.50
2019-03-04T04:51:16.899Z,75.81
2019-03-04T04:53:49.040Z,75.69
2019-03-04T04:56:21.000Z,75.74
2019-03-04T04:58:52.942Z,75.79
2019-03-04T05:01:24.893Z,75.83
2019-03-04T05:03:56.937Z,75.56
2019-03-04T05:06:29.127Z,75.36
2019-03-04T05:09:01.191Z,74.49
2019-03-04T05:11:34.767Z,73.69
2019-03-04T05:14:06.901Z,72.71
2019-03-04T05:16:39.019Z,72.41
2019-03-04T05:19:16.497Z,72.74
2019-03-04T05:21:47.428Z,72.66
2019-03-04T05:24:20.089Z,71.79
2019-03-04T05:26:52.580Z,71.13
2019-03-04T05:29:24.676Z,70.67
2019-03-04T05:31:56.668Z,70.51
2019-03-04T05:34:28.627Z,69.92
2019-03-04T05:37:00.515Z,70.19
2019-03-04T05:39:32.509Z,70.01
2019-03-04T05:42:04.435Z,69.72
2019-03-04T05:44:36.363Z,69.43
2019-03-04T05:47:08.279Z,69.15
2019-03-04T05:49:40.211Z,69.04
2019-03-04T06:09:48.327Z,68.96
2019-03-04T06:12:20.159Z,69.37
2019-03-04T06:14:52.164Z,69.08
2019-03-04T06:17:24.087Z,69.19
2019-03-04T06:19:55.953Z,68.95
2019-03-04T06:22:27.767Z,69.61
2019-03-04T06:24:59.683Z,68.97
2019-03-04T06:27:31.527Z,68.63
2019-03-04T06:30:03.671Z,68.65
2019-03-04T06:32:35.682Z,67.74
2019-03-04T06:35:08.887Z,67.77
2019-03-04T06:37:40.733Z,67.57
2019-03-04T06:40:14.078Z,67.72
2019-03-04T06:42:46.219Z,67.85
2019-03-04T06:45:18.242Z,67.86
2019-03-04T06:47:50.107Z,68.07
2019-03-04T06:50:53.302Z,68.18
2019-03-04T06:53:42.668Z,69.00
2019-03-04T06:56:54.588Z,70.17
2019-03-04T07:00:22.665Z,70.92
2019-03-04T07:02:54.619Z,71.72
2019-03-04T07:05:54.804Z,72.96
2019-03-04T07:09:05.289Z,73.28
2019-03-04T07:11:43.655Z,73.49
2019-03-04T07:14:15.615Z,72.59
2019-03-04T07:16:50.600Z,72.06
2019-03-04T07:19:32.468Z,72.04
2019-03-04T07:22:04.484Z,71.80
2019-03-04T07:24:36.295Z,70.94
2019-03-04T07:27:08.131Z,70.63
2019-03-04T07:29:40.006Z,69.95
2019-03-04T07:32:11.964Z,68.88
2019-03-04T07:34:43.908Z,68.04
2019-03-04T07:37:15.792Z,67.33
2019-03-04T07:39:47.635Z,66.53
2019-03-04T07:42:19.498Z,65.02
2019-03-04T07:44:51.440Z,64.18
2019-03-04T07:47:23.376Z,64.34
2019-03-04T07:49:55.266Z,64.33
2019-03-04T07:52:27.231Z,63.69
2019-03-04T07:54:59.136Z,62.93
2019-03-04T07:57:31.048Z,61.20
2019-03-04T08:00:02.860Z,61.68
2019-03-04T08:02:35.872Z,61.61
2019-03-04T08:05:08.607Z,60.77
2019-03-04T08:07:47.080Z,60.18
2019-03-04T08:11:14.138Z,58.99
2019-03-04T08:13:51.849Z,57.92
2019-03-04T08:16:23.681Z,56.83
2019-03-04T08:18:55.583Z,57.15
2019-03-04T08:21:27.559Z,56.80
2019-03-04T08:23:59.467Z,56.21
2019-03-04T08:26:31.358Z,56.39
2019-03-04T08:29:03.167Z,56.01
2019-03-04T08:31:35.144Z,53.46
2019-03-04T08:34:09.209Z,52.49
2019-03-04T08:36:40.618Z,52.46
2019-03-04T08:39:12.980Z,52.76
2019-03-04T08:41:44.876Z,53.11
2019-03-04T08:44:16.756Z,53.93
2019-03-04T08:46:48.752Z,54.09
2019-03-04T08:49:20.622Z,53.98
2019-03-04T08:51:52.644Z,52.71
2019-03-04T08:54:24.521Z,51.48
2019-03-04T08:57:03.703Z,50.97
2019-03-04T08:59:29.939Z,50.93
2019-03-04T09:02:01.807Z,49.79
2019-03-04T09:04:33.700Z,49.21
2019-03-04T09:07:05.588Z,50.13
2019-03-04T09:09:37.529Z,49.52
2019-03-04T09:12:09.464Z,50.34
2019-03-04T09:14:41.306Z,49.86
2019-03-04T09:17:13.331Z,49.74
2019-03-04T09:19:45.218Z,49.78
2019-03-04T09:22:17.174Z,50.30
2019-03-04T09:24:49.107Z,51.35
2019-03-04T09:27:21.272Z,51.78
2019-03-04T09:29:53.147Z,51.37
2019-03-04T09:32:25.013Z,50.69
2019-03-04T09:34:56.852Z,50.64
2019-03-04T09:37:28.733Z,50.18
2019-03-04T09:40:00.698Z,50.71
2019-03-04T09:42:32.825Z,51.10
2019-03-04T09:45:05.998Z,51.33
2019-03-04T09:47:37.887Z,51.23
2019-03-04T09:50:13.589Z,50.66
2019-03-04T09:52:45.694Z,51.33
2019-03-04T09:55:18.919Z,50.68
2019-03-04T09:57:50.946Z,51.63
2019-03-04T10:00:36.615Z,51.85
2019-03-04T10:03:56.526Z,51.68
2019-03-04T10:06:58.321Z,51.58
2019-03-04T10:10:19.917Z,51.81
2019-03-04T10:13:58.740Z,51.58
2019-03-04T10:17:44.661Z,51.61
2019-03-04T10:21:25.275Z,50.97
2019-03-04T10:24:40.191Z,50.16
2019-03-04T10:27:58.855Z,49.70
2019-03-04T10:31:22.299Z,49.12
2019-03-04T10:34:43.077Z,49.01
2019-03-04T10:37:53.557Z,48.35
2019-03-04T10:41:43.869Z,47.91
2019-03-04T10:45:10.689Z,47.40
2019-03-04T10:47:42.721Z,46.90
2019-03-04T10:50:14.733Z,46.24
2019-03-04T10:52:46.830Z,45.82
2019-03-04T10:55:20.249Z,45.36
2019-03-04T10:57:52.020Z,45.74
2019-03-04T11:00:24.972Z,46.05
2019-03-04T11:02:56.877Z,46.47
2019-03-04T11:05:28.867Z,46.01
2019-03-04T11:08:00.796Z,46.18
2019-03-04T11:10:32.722Z,45.95
2019-03-04T11:13:05.216Z,45.70
2019-03-04T11:15:37.131Z,45.10
2019-03-04T11:18:09.035Z,44.64
2019-03-04T11:20:40.881Z,43.88
2019-03-04T11:23:15.132Z,43.72
2019-03-04T11:25:47.421Z,43.17
2019-03-04T11:28:19.409Z,42.45
2019-03-04T11:30:51.315Z,42.83
2019-03-04T11:33:23.142Z,42.86
2019-03-04T11:35:55.082Z,42.55
2019-03-04T11:38:49.009Z,42.46
2019-03-04T11:41:23.213Z,42.16
2019-03-04T11:43:55.172Z,41.87
2019-03-04T11:46:27.103Z,41.41
2019-03-04T11:48:58.927Z,40.94
2019-03-04T11:51:30.839Z,40.95
2019-03-04T11:54:02.821Z,40.91
2019-03-04T11:56:34.736Z,40.74
2019-03-04T11:59:06.658Z,41.32
2019-03-04T12:01:42.936Z,39.16
2019-03-04T12:04:14.840Z,39.37
2019-03-04T12:06:46.831Z,38.44
2019-03-04T12:09:18.821Z,37.70
2019-03-04T12:11:50.825Z,35.84
2019-03-04T12:14:22.683Z,36.70
2019-03-04T12:16:54.604Z,34.52
2019-03-04T12:19:28.621Z,33.42
2019-03-04T12:22:02.190Z,32.33
2019-03-04T12:24:34.177Z,32.03
2019-03-04T12:27:06.892Z,32.46
2019-03-04T12:29:38.837Z,32.14
2019-03-04T12:32:15.045Z,32.50
2019-03-04T12:34:46.906Z,32.47
2019-03-04T12:37:18.948Z,33.13
2019-03-04T12:39:50.842Z,33.59
2019-03-04T12:42:22.780Z,33.82
2019-03-04T12:44:54.645Z,33.97
2019-03-04T12:47:26.418Z,34.76
2019-03-04T12:49:59.419Z,35.31
2019-03-04T12:52:31.363Z,35.50
2019-03-04T12:55:03.290Z,36.23
2019-03-04T12:57:35.368Z,35.62
2019-03-04T13:00:18.464Z,36.11
2019-03-04T13:02:57.614Z,35.85
2019-03-04T13:05:25.560Z,35.24
2019-03-04T13:07:57.643Z,36.99
2019-03-04T13:10:33.507Z,38.64
2019-03-04T13:13:04.196Z,40.15
2019-03-04T13:15:36.352Z,41.33
2019-03-04T13:18:10.119Z,42.58
2019-03-04T13:20:42.903Z,42.09
2019-03-04T13:23:15.286Z,41.70
2019-03-04T13:25:48.835Z,41.73
2019-03-04T13:28:21.123Z,42.76
2019-03-04T13:30:54.614Z,42.56
2019-03-04T13:33:26.766Z,40.48
2019-03-04T13:35:58.983Z,40.39
2019-03-04T13:38:31.223Z,40.48
2019-03-04T13:41:03.504Z,40.72
2019-03-04T13:43:35.608Z,40.59
2019-03-04T13:46:07.828Z,40.40
2019-03-04T13:48:39.346Z,39.42
2019-03-04T13:51:11.522Z,39.97
2019-03-04T13:53:43.670Z,39.77
2019-03-04T13:56:15.852Z,38.33
2019-03-04T13:58:48.011Z,38.01
2019-03-04T14:01:20.065Z,37.61
2019-03-04T14:03:52.139Z,36.19
2019-03-04T14:06:24.362Z,35.93
2019-03-04T14:08:56.560Z,37.14
2019-03-04T14:11:32.289Z,35.12
2019-03-04T14:14:06.130Z,35.34
2019-03-04T14:16:40.835Z,35.44
2019-03-04T14:19:35.268Z,35.43
2019-03-04T14:22:07.613Z,35.74
2019-03-04T14:24:39.967Z,36.10
2019-03-04T14:27:12.597Z,35.97
2019-03-04T14:29:44.832Z,36.30
2019-03-04T14:32:25.939Z,36.37
2019-03-04T14:35:00.969Z,36.13
2019-03-04T14:37:33.390Z,36.37
2019-03-04T14:40:10.671Z,36.96
2019-03-04T14:42:47.017Z,37.53
2019-03-04T14:45:36.034Z,37.17
2019-03-04T14:48:08.476Z,37.62
2019-03-04T14:50:40.895Z,37.23
2019-03-04T14:53:40.617Z,37.51
2019-03-04T14:56:42.404Z,37.33
2019-03-04T14:59:28.419Z,37.79
2019-03-04T15:01:52.663Z,37.32
2019-03-04T15:04:30.740Z,37.89
2019-03-04T15:07:02.836Z,46.03
2019-03-04T15:09:34.857Z,38.91
2019-03-04T15:12:06.975Z,37.55
2019-03-04T15:14:38.931Z,38.74
2019-03-04T15:17:20.869Z,38.85
2019-03-04T15:19:53.046Z,39.50
2019-03-04T15:22:34.409Z,40.24
2019-03-04T15:24:58.824Z,40.06
2019-03-04T15:27:30.794Z,40.17
2019-03-04T15:30:03.241Z,40.41
2019-03-04T15:32:37.070Z,40.64
2019-03-04T15:35:09.620Z,40.64
2019-03-04T15:37:41.695Z,40.39
2019-03-04T15:40:17.208Z,41.14
2019-03-04T15:42:55.774Z,41.56
2019-03-04T15:45:33.943Z,41.39
2019-03-04T15:48:11.404Z,42.27
2019-03-04T15:50:45.986Z,42.58
2019-03-04T15:53:39.494Z,42.90
2019-03-04T15:59:19.945Z,42.79
2019-03-04T16:02:04.718Z,43.06
2019-03-04T16:05:37.323Z,43.42
2019-03-04T16:11:46.273Z,43.45
2019-03-04T16:14:35.620Z,43.15
2019-03-04T16:18:09.174Z,42.88
2019-03-04T16:21:49.029Z,43.01
2019-03-04T16:24:23.877Z,42.80
2019-03-04T16:33:06.396Z,43.26
2019-03-04T16:55:02.653Z,47.42
2019-03-04T16:57:34.857Z,46.50
2019-03-04T17:00:09.880Z,46.75
2019-03-04T17:02:42.214Z,46.18
2019-03-04T17:05:16.219Z,45.96
2019-03-04T17:07:51.116Z,46.54
2019-03-04T17:10:23.650Z,48.99
2019-03-04T17:13:02.293Z,56.44
2019-03-04T17:15:44.496Z,67.27
2019-03-04T17:18:11.521Z,72.65
2019-03-04T17:20:43.494Z,73.29
2019-03-04T17:23:18.816Z,74.29
2019-03-04T17:25:51.095Z,75.28
2019-03-04T17:28:24.167Z,75.76
2019-03-04T17:30:59.064Z,75.60
2019-03-04T17:33:31.044Z,74.85
2019-03-04T17:36:03.078Z,74.61
2019-03-04T17:38:37.367Z,73.41
2019-03-04T17:41:09.483Z,72.76
2019-03-04T17:43:41.506Z,71.77
2019-03-04T17:46:13.791Z,69.95
2019-03-04T17:48:45.923Z,68.09
2019-03-04T17:51:18.230Z,66.98
2019-03-04T17:53:52.355Z,68.64
2019-03-04T17:56:29.234Z,76.79
2019-03-04T17:59:04.283Z,81.53
2019-03-04T18:01:42.994Z,83.40
2019-03-04T18:04:20.298Z,84.32
2019-03-04T18:06:56.119Z,85.99
2019-03-04T18:09:44.034Z,86.76
2019-03-04T18:12:18.405Z,87.48
2019-03-04T18:14:50.517Z,88.14
2019-03-04T18:17:24.281Z,88.30
2019-03-04T18:19:58.093Z,87.84
2019-03-04T18:22:31.840Z,86.67
2019-03-04T18:25:03.893Z,87.47
2019-03-04T18:28:01.591Z,87.76
2019-03-04T18:31:15.807Z,87.64
2019-03-04T18:48:47.889Z,87.47
2019-03-04T18:51:54.163Z,90.45
2019-03-04T18:56:21.585Z,90.65
2019-03-04T19:04:23.869Z,90.39
2019-03-04T19:07:03.483Z,89.59
2019-03-04T19:09:37.275Z,89.98
2019-03-04T19:12:19.878Z,90.40
2019-03-04T19:15:14.713Z,90.74
2019-03-04T19:17:58.571Z,91.53
2019-03-04T19:20:32.423Z,91.90
2019-03-04T19:23:06.246Z,92.64
2019-03-04T19:25:46.131Z,92.74
2019-03-04T19:28:26.063Z,92.72
2019-03-04T19:31:06.859Z,93.16
2019-03-04T19:33:49.446Z,93.79
2019-03-04T19:36:12.757Z,94.09
2019-03-04T19:38:46.353Z,94.80
2019-03-04T19:41:18.387Z,95.09
2019-03-04T19:43:50.441Z,94.72
2019-03-04T19:46:22.637Z,94.13
2019-03-04T19:48:54.909Z,94.53
2019-03-04T19:51:28.457Z,93.90
2019-03-04T19:54:00.489Z,94.06
2019-03-04T19:56:33.023Z,94.00
2019-03-04T19:59:05.161Z,93.89
2019-03-04T20:01:37.223Z,93.82
2019-03-04T20:04:09.580Z,93.55
2019-03-04T20:06:41.836Z,93.63
2019-03-04T20:09:14.174Z,92.63
2019-03-04T20:11:47.137Z,92.16
2019-03-04T20:14:22.885Z,91.27
2019-03-04T20:16:55.430Z,91.10
2019-03-04T20:19:29.463Z,90.98
2019-03-04T20:22:02.972Z,90.37
2019-03-04T20:24:35.397Z,89.18
2019-03-04T20:27:07.320Z,88.45
2019-03-04T20:29:39.361Z,87.76
2019-03-04T20:32:11.412Z,87.38
2019-03-04T20:34:43.607Z,86.62
2019-03-04T20:37:15.732Z,86.52
2019-03-04T20:39:48.232Z,86.54
2019-03-04T20:42:22.290Z,86.66
2019-03-04T20:44:54.256Z,86.95
2019-03-04T20:47:26.224Z,86.57
2019-03-04T20:49:59.328Z,85.29
2019-03-04T20:52:32.572Z,84.64
2019-03-04T20:55:12.671Z,83.50
2019-03-04T20:57:51.267Z,83.79
2019-03-04T21:00:34.752Z,83.99
2019-03-04T21:03:19.995Z,83.05
2019-03-04T21:05:53.217Z,82.42
2019-03-04T21:08:25.311Z,82.88
2019-03-04T21:11:02.300Z,83.28
2019-03-04T21:13:35.871Z,83.08
2019-03-04T21:16:27.471Z,83.08
2019-03-04T21:19:01.228Z,83.18
2019-03-04T21:21:33.359Z,83.05
2019-03-04T21:24:10.253Z,82.49
2019-03-04T21:26:51.629Z,82.60
2019-03-04T21:30:41.739Z,82.60
2019-03-04T21:33:33.100Z,81.88
2019-03-04T21:36:51.459Z,82.11
2019-03-04T21:39:35.072Z,82.00
2019-03-04T21:42:32.125Z,81.36
2019-03-04T21:46:26.808Z,80.65
2019-03-04T21:49:07.007Z,80.44
2019-03-04T21:52:27.247Z,80.55
2019-03-04T21:54:59.279Z,79.90
2019-03-04T21:57:56.471Z,78.98
2019-03-04T22:00:40.116Z,78.73
2019-03-04T22:03:28.653Z,78.43
2019-03-04T22:06:01.029Z,78.18
2019-03-04T22:08:33.014Z,77.89
2019-03-04T22:11:06.234Z,77.27
2019-03-04T22:13:38.211Z,76.91
2019-03-04T22:16:10.216Z,75.61
2019-03-04T22:18:42.156Z,75.53
2019-03-04T22:21:16.713Z,75.29
2019-03-04T22:23:47.847Z,75.25
2019-03-04T22:26:19.926Z,75.69
2019-03-04T22:28:51.811Z,76.06
2019-03-04T22:31:23.858Z,75.00
2019-03-04T22:33:55.860Z,74.40
2019-03-04T22:36:27.828Z,74.09
2019-03-04T22:38:59.794Z,73.58
2019-03-04T22:41:31.701Z,73.41
2019-03-04T22:44:03.801Z,72.57
2019-03-04T22:46:35.783Z,72.62
2019-03-04T22:49:07.743Z,72.72
2019-03-04T22:51:41.755Z,72.08
2019-03-04T22:54:13.618Z,72.25
2019-03-04T22:56:45.630Z,72.00
2019-03-04T22:59:17.493Z,70.90
2019-03-04T23:02:08.581Z,71.27
2019-03-04T23:05:15.340Z,71.05
2019-03-04T23:07:54.470Z,71.48
2019-03-04T23:10:41.114Z,71.30
2019-03-04T23:13:47.699Z,70.41
2019-03-04T23:16:24.046Z,70.11
2019-03-04T23:18:55.959Z,70.76
2019-03-04T23:21:27.792Z,70.87
2019-03-04T23:23:59.640Z,70.53
2019-03-04T23:26:31.603Z,70.98
2019-03-04T23:29:03.562Z,71.08
2019-03-04T23:31:35.359Z,71.01
2019-03-04T23:34:07.219Z,70.54
2019-03-04T23:36:39.045Z,70.88
2019-03-04T23:39:11.082Z,70.96
2019-03-04T23:41:42.971Z,70.81
2019-03-04T23:44:14.819Z,70.13
2019-03-04T23:46:46.594Z,69.61
2019-03-04T23:49:18.605Z,68.88
2019-03-04T23:51:50.447Z,69.10
2019-03-04T23:54:22.292Z,69.27
2019-03-04T23:56:54.158Z,69.39
2019-03-04T23:59:26.075Z,69.03
